Time;durP1;ratioP1;P1;durP2;ratioP2;P2;SDS_P1;SDS_P2;PMS_P1;PMS_P2;Temp;Humidity;BMP_temperature;BMP_pressure;BME280_temperature;BME280_humidity;BME280_pressure;Samples;Min_cycle;Max_cycle;Signal;HPM_P1;HPM_P2
2022/12/26 00:01:34;;;;;;;31.02;14.30;;;;;;;3.24;78.32;101079.47;5068826;28;20036;-26
2022/12/26 00:03:59;;;;;;;28.53;12.57;;;;;;;2.84;79.67;101078.00;5068735;28;20028;-27
2022/12/26 00:06:27;;;;;;;24.00;13.07;;;;;;;2.77;79.96;101082.97;5069402;28;20109;-25
2022/12/26 00:08:53;;;;;;;25.38;12.48;;;;;;;3.16;79.34;101109.19;5067654;28;20477;-25
2022/12/26 00:11:20;;;;;;;24.25;11.88;;;;;;;3.34;79.25;101105.81;5069056;28;20028;-28
2022/12/26 00:13:46;;;;;;;21.77;11.57;;;;;;;3.13;78.04;101083.16;5067402;28;20488;-29
2022/12/26 00:16:14;;;;;;;25.02;13.82;;;;;;;2.40;80.97;101083.75;5068445;28;20040;-27
2022/12/26 00:18:40;;;;;;;24.83;14.05;;;;;;;2.28;82.17;101113.00;5075183;28;20075;-27
2022/12/26 00:21:07;;;;;;;28.08;12.15;;;;;;;2.70;80.76;101102.16;5058704;28;20080;-27
2022/12/26 00:23:33;;;;;;;23.55;12.88;;;;;;;2.89;79.59;101123.16;5061031;28;20127;-28
2022/12/26 00:26:07;;;;;;;25.13;12.15;;;;;;;2.97;79.11;101119.81;5060317;28;20555;-28
2022/12/26 00:28:32;;;;;;;27.80;13.90;;;;;;;3.15;77.80;101117.28;5073692;28;20029;-26
2022/12/26 00:31:02;;;;;;;34.97;15.85;;;;;;;3.15;77.80;101131.28;5068477;28;20074;-25
2022/12/26 00:33:27;;;;;;;23.60;11.80;;;;;;;2.90;77.86;101106.41;5068612;28;20032;-28
2022/12/26 00:35:53;;;;;;;23.92;10.95;;;;;;;3.19;77.93;101139.72;5069008;28;20415;-26
2022/12/26 00:38:18;;;;;;;21.35;9.80;;;;;;;3.25;77.19;101128.63;5068601;28;20124;-30
2022/12/26 00:40:44;;;;;;;20.50;8.82;;;;;;;3.15;76.81;101112.00;5050433;28;20415;-27
2022/12/26 00:43:09;;;;;;;23.08;9.15;;;;;;;3.25;77.46;101140.94;5068587;28;20020;-26
2022/12/26 00:45:35;;;;;;;20.90;8.73;;;;;;;3.15;77.16;101128.63;5068218;28;20024;-27
2022/12/26 00:48:00;;;;;;;19.38;8.52;;;;;;;3.02;77.72;101136.00;5070451;28;20427;-26
2022/12/26 00:50:26;;;;;;;21.50;9.27;;;;;;;2.77;78.42;101109.31;5072056;28;20021;-26
2022/12/26 00:52:52;;;;;;;18.05;7.90;;;;;;;3.07;77.08;101135.63;5072143;28;20028;-25
2022/12/26 00:55:17;;;;;;;14.10;6.95;;;;;;;2.62;78.31;101137.09;5071972;28;20024;-29
2022/12/26 00:57:43;;;;;;;12.15;6.22;;;;;;;2.37;80.15;101128.78;5072011;28;20611;-26
2022/12/26 01:00:09;;;;;;;18.42;8.55;;;;;;;1.82;81.11;101107.44;5071856;28;20055;-27
2022/12/26 01:02:37;;;;;;;16.90;9.85;;;;;;;1.79;81.60;101126.94;5071609;28;20033;-28
2022/12/26 01:05:04;;;;;;;19.08;10.50;;;;;;;2.14;81.09;101124.75;5072091;28;20020;-25
2022/12/26 01:07:35;;;;;;;21.58;10.52;;;;;;;2.14;79.27;101130.84;5071965;28;20401;-26
2022/12/26 01:10:01;;;;;;;21.48;11.20;;;;;;;1.39;80.19;101133.06;5071396;28;20725;-27
2022/12/26 01:12:26;;;;;;;25.13;14.45;;;;;;;0.98;81.69;101102.44;5053539;28;20032;-26
2022/12/26 01:14:54;;;;;;;26.02;13.35;;;;;;;0.90;81.83;101126.75;5053483;28;20024;-29
2022/12/26 01:17:20;;;;;;;;;;;;;;;0.56;81.30;101141.88;5072104;28;20035;-25
2022/12/26 01:19:45;;;;;;;27.77;13.55;;;;;;;0.51;81.75;101125.66;5071702;28;19912;-26
2022/12/26 01:22:11;;;;;;;20.95;11.68;;;;;;;0.83;79.74;101119.50;5053105;28;20060;-25
2022/12/26 01:24:36;;;;;;;21.90;11.57;;;;;;;1.30;79.13;101144.34;5071288;28;20024;-25
2022/12/26 01:27:01;;;;;;;17.42;10.10;;;;;;;1.47;79.84;101140.28;5071585;28;20032;-28
2022/12/26 01:29:27;;;;;;;26.80;11.65;;;;;;;1.54;80.21;101136.16;5071083;28;20024;-27
2022/12/26 01:31:52;;;;;;;20.60;11.23;;;;;;;1.65;79.40;101131.75;5053630;28;20115;-26
2022/12/26 01:34:18;;;;;;;23.60;12.00;;;;;;;1.47;80.57;101092.97;5071457;28;20513;-26
2022/12/26 01:36:43;;;;;;;25.33;12.60;;;;;;;1.54;81.54;101123.00;5071449;28;20389;-26
2022/12/26 01:39:09;;;;;;;21.23;11.82;;;;;;;1.85;80.94;101124.75;5071310;28;20048;-27
2022/12/26 01:41:35;;;;;;;22.67;11.57;;;;;;;1.67;81.48;101128.00;5071060;28;20031;-25
2022/12/26 01:44:06;;;;;;;22.60;12.05;;;;;;;1.35;81.99;101115.88;5071061;28;20032;-25
2022/12/26 01:46:38;;;;;;;24.70;13.10;;;;;;;1.74;81.17;101128.31;5053145;28;20028;-26
2022/12/26 01:49:42;;;;;;;24.38;14.45;;;;;;;1.89;82.24;101123.50;5053035;28;20017;-28
2022/12/26 01:52:16;;;;;;;25.08;14.30;;;;;;;1.92;83.00;101118.81;4992082;28;20030;-26
2022/12/26 01:54:47;;;;;;;28.58;15.50;;;;;;;1.91;81.94;101125.00;5061314;28;20039;-26
2022/12/26 01:57:18;;;;;;;24.60;14.52;;;;;;;1.97;82.75;101132.38;5071164;28;20047;-26
2022/12/26 01:59:46;;;;;;;23.13;13.55;;;;;;;1.96;82.94;101114.94;5070115;28;20024;-26
2022/12/26 02:02:11;;;;;;;25.65;14.10;;;;;;;1.90;82.76;101106.72;5070329;28;20514;-27
2022/12/26 02:07:34;;;;;;;27.10;13.95;;;;;;;2.03;81.18;101123.09;5070595;28;20429;-27
2022/12/26 02:10:01;;;;;;;26.88;13.43;;;;;;;1.86;82.03;101127.25;5052435;28;20404;-27
2022/12/26 02:12:32;;;;;;;24.23;13.57;;;;;;;2.06;81.33;101119.34;5070509;28;20043;-26
2022/12/26 02:14:58;;;;;;;24.38;13.00;;;;;;;1.87;81.70;101131.53;5070526;28;20024;-25
2022/12/26 02:17:25;;;;;;;30.30;14.48;;;;;;;1.97;81.25;101132.38;5052193;28;20039;-26
2022/12/26 02:20:14;;;;;;;207.75;108.68;;;;;;;1.96;81.89;101124.59;5070767;28;20036;-26
2022/12/26 02:23:04;;;;;;;27.35;16.27;;;;;;;2.29;80.68;101126.03;5070307;28;20091;-26
2022/12/26 02:26:03;;;;;;;25.83;14.50;;;;;;;2.06;81.12;101140.41;5052412;28;20028;-26
2022/12/26 02:28:38;;;;;;;31.00;16.52;;;;;;;2.16;80.95;101126.28;5052295;28;20552;-25
2022/12/26 02:31:28;;;;;;;30.38;16.55;;;;;;;1.98;80.90;101130.56;5070677;28;20032;-25
2022/12/26 02:34:12;;;;;;;28.25;16.85;;;;;;;1.78;81.96;101138.44;5069855;28;20476;-27
2022/12/26 02:36:46;;;;;;;55.33;36.47;;;;;;;1.59;83.58;101144.47;5052065;28;20956;-29
2022/12/26 02:39:49;;;;;;;32.92;21.25;;;;;;;1.73;83.19;101150.31;5070215;28;20058;-28
2022/12/26 02:42:32;;;;;;;28.25;17.60;;;;;;;1.35;83.03;101151.88;5069602;28;20020;-26
2022/12/26 02:48:21;;;;;;;23.70;14.68;;;;;;;1.69;81.29;101169.94;5069874;28;20047;-30
2022/12/26 03:14:21;;;;;;;24.13;12.68;;;;;;;0.66;83.37;101176.91;5069355;28;20093;-26
2022/12/26 03:19:56;;;;;;;32.67;14.70;;;;;;;0.56;84.10;101158.44;5069799;28;20051;-27
2022/12/26 03:22:29;;;;;;;30.90;15.25;;;;;;;0.77;83.54;101179.44;5050713;28;20057;-25
2022/12/26 03:27:41;;;;;;;22.92;12.57;;;;;;;1.14;82.02;101155.34;5069267;28;20097;-26
2022/12/26 03:32:55;;;;;;;24.67;13.15;;;;;;;0.89;83.23;101145.25;5069442;28;20581;-27
2022/12/26 03:35:20;;;;;;;22.38;12.85;;;;;;;0.74;83.24;101135.09;5068935;28;20020;-25
2022/12/26 03:37:52;;;;;;;27.13;14.38;;;;;;;0.58;85.19;101153.06;5069164;28;20036;-25
2022/12/26 04:19:25;;;;;;;22.45;14.68;;;;;;;1.04;82.80;101175.47;5054198;28;20545;-25
2022/12/26 04:44:28;;;;;;;27.35;15.38;;;;;;;1.14;84.19;101160.59;5072402;28;20074;-27
2022/12/26 04:46:55;;;;;;;26.88;14.90;;;;;;;1.31;83.69;101185.44;5072221;28;20024;-25
2022/12/26 04:52:09;;;;;;;36.75;21.42;;;;;;;1.10;83.97;101195.16;5072242;28;20093;-25
2022/12/26 04:54:35;;;;;;;31.63;18.35;;;;;;;1.05;84.15;101198.16;5072288;28;20024;-27
2022/12/26 04:57:00;;;;;;;29.98;16.85;;;;;;;1.22;83.89;101199.34;5072254;28;20056;-27
2022/12/26 04:59:26;;;;;;;20.50;13.50;;;;;;;1.38;82.38;101197.09;5071820;28;20056;-27
2022/12/26 05:10:14;;;;;;;21.40;12.00;;;;;;;1.23;83.05;101215.94;5071613;28;20035;-26
2022/12/26 05:12:40;;;;;;;23.25;13.10;;;;;;;1.05;82.99;101213.94;5071942;28;20035;-25
2022/12/26 05:15:05;;;;;;;23.90;13.73;;;;;;;0.87;83.53;101212.84;5053447;28;20024;-25
2022/12/26 05:28:42;;;;;;;30.38;16.13;;;;;;;0.65;83.47;101193.59;5071309;28;20112;-27
2022/12/26 05:31:17;;;;;;;27.98;16.13;;;;;;;0.92;82.29;101224.63;5071221;28;20040;-26
2022/12/26 05:36:32;;;;;;;34.22;17.20;;;;;;;0.72;82.60;101221.03;5071462;28;20043;-26
2022/12/26 05:38:57;;;;;;;26.80;18.48;;;;;;;0.84;81.17;101205.19;5053372;28;20028;-26
2022/12/26 05:41:23;;;;;;;29.63;18.63;;;;;;;1.06;81.73;101228.72;5070920;28;20423;-24
2022/12/26 05:43:48;;;;;;;34.20;16.98;;;;;;;0.85;82.66;101222.63;5071103;28;20028;-26
2022/12/26 05:46:14;;;;;;;28.92;16.45;;;;;;;0.14;83.47;101199.50;5070944;28;20043;-26
2022/12/26 05:48:39;;;;;;;28.25;15.80;;;;;;;0.34;83.36;101211.84;5070995;28;20497;-25
2022/12/26 05:51:05;;;;;;;25.83;16.90;;;;;;;0.42;82.94;101219.09;5070989;28;20100;-24
2022/12/26 05:53:31;;;;;;;31.95;18.20;;;;;;;0.37;81.68;101216.88;5070891;28;20024;-26
2022/12/26 05:56:05;;;;;;;38.40;21.33;;;;;;;0.52;82.00;101221.81;5070766;28;20028;-27
2022/12/26 05:58:31;;;;;;;37.67;20.45;;;;;;;0.32;81.88;101199.81;5070820;28;20020;-28
2022/12/26 06:01:23;;;;;;;39.28;20.55;;;;;;;0.61;81.14;101221.06;5070916;28;20042;-29
2022/12/26 06:03:55;;;;;;;36.25;18.00;;;;;;;0.31;81.30;101224.41;5067807;28;20047;-25
2022/12/26 06:06:21;;;;;;;31.25;15.82;;;;;;;0.29;80.93;101200.91;5052302;28;20122;-30
2022/12/26 06:08:48;;;;;;;31.50;18.60;;;;;;;0.42;82.13;101237.47;5070891;28;20035;-26
2022/12/26 06:11:14;;;;;;;32.75;16.38;;;;;;;0.38;80.67;101236.06;5070773;28;20028;-26
2022/12/26 06:13:40;;;;;;;35.20;18.23;;;;;;;0.22;80.96;101228.56;5070823;28;20158;-25
2022/12/26 06:16:16;;;;;;;39.88;19.50;;;;;;;0.08;82.40;101213.97;5070390;28;20036;-25
2022/12/26 06:18:43;;;;;;;48.97;24.73;;;;;;;0.31;81.02;101222.59;5052436;28;20051;-26
2022/12/26 06:21:11;;;;;;;44.70;21.17;;;;;;;0.70;81.04;101257.06;5051907;28;20058;-27
2022/12/26 06:23:37;;;;;;;23.77;12.88;;;;;;;0.78;81.66;101248.56;5070171;28;20020;-25
2022/12/26 06:26:03;;;;;;;37.78;20.42;;;;;;;0.76;80.36;101243.44;5070157;28;20037;-26
2022/12/26 06:28:29;;;;;;;37.63;22.52;;;;;;;0.73;80.47;101241.06;5070406;28;20024;-26
2022/12/26 06:31:10;;;;;;;34.22;20.58;;;;;;;0.50;82.47;101235.06;5070426;28;20036;-29
2022/12/26 06:33:36;;;;;;;38.00;19.38;;;;;;;0.66;82.52;101263.53;5069977;28;20077;-25
2022/12/26 06:36:13;;;;;;;33.03;16.73;;;;;;;0.58;82.64;101263.31;5052048;28;20037;-27
2022/12/26 06:38:39;;;;;;;22.67;11.88;;;;;;;0.95;82.44;101261.13;5070218;28;20028;-25
2022/12/26 06:41:06;;;;;;;25.08;11.82;;;;;;;1.00;81.90;101266.00;5069923;28;20089;-28
2022/12/26 06:43:32;;;;;;;28.20;13.02;;;;;;;1.04;83.55;101269.22;5051961;28;20024;-25
2022/12/26 06:45:59;;;;;;;34.78;18.95;;;;;;;1.30;83.57;101264.41;5051252;28;20032;-25
2022/12/26 06:48:25;;;;;;;25.20;14.10;;;;;;;1.46;82.40;101242.94;5070088;28;20029;-25
2022/12/26 06:50:53;;;;;;;31.45;16.25;;;;;;;1.51;82.94;101272.28;5070045;28;20024;-26
2022/12/26 06:53:19;;;;;;;26.85;16.42;;;;;;;1.84;81.72;101263.31;5069789;28;20032;-27
2022/12/26 06:55:44;;;;;;;27.92;16.02;;;;;;;1.80;83.25;101275.91;5069807;28;20033;-28
2022/12/26 06:58:10;;;;;;;50.55;36.50;;;;;;;1.86;83.23;101253.50;5069494;28;20073;-27
2022/12/26 07:00:35;;;;;;;29.48;18.33;;;;;;;1.84;83.97;101242.28;5051326;28;20028;-26
2022/12/26 07:03:01;;;;;;;27.65;16.27;;;;;;;2.38;82.85;101280.50;5069838;28;20104;-25
2022/12/26 07:05:26;;;;;;;38.13;17.40;;;;;;;2.64;82.02;101264.19;5069522;28;20491;-30
2022/12/26 07:07:52;;;;;;;30.05;16.58;;;;;;;2.59;82.29;101267.22;5069843;28;20028;-27
2022/12/26 07:10:20;;;;;;;32.72;20.20;;;;;;;2.68;81.94;101280.56;5051251;28;20028;-26
2022/12/26 07:12:47;;;;;;;26.42;14.40;;;;;;;2.73;82.47;101255.44;5069235;28;20054;-27
2022/12/26 07:15:12;;;;;;;21.65;13.55;;;;;;;2.94;82.55;101294.84;5051325;28;20029;-25
2022/12/26 07:17:38;;;;;;;28.25;16.63;;;;;;;2.96;82.70;101260.44;5069577;28;20024;-26
2022/12/26 07:20:04;;;;;;;75.15;36.78;;;;;;;2.81;82.78;101263.50;5069236;28;20545;-25
2022/12/26 07:22:30;;;;;;;106.80;48.00;;;;;;;3.13;82.90;101272.91;5068754;28;20048;-27
2022/12/26 07:24:55;;;;;;;115.78;47.35;;;;;;;3.29;81.91;101287.31;5069273;28;20024;-27
2022/12/26 07:27:21;;;;;;;105.88;50.22;;;;;;;3.32;82.31;101294.97;5069313;28;20024;-25
2022/12/26 07:29:47;;;;;;;83.35;42.50;;;;;;;3.39;82.01;101285.50;5068817;28;20076;-26
2022/12/26 07:32:13;;;;;;;72.85;39.40;;;;;;;3.56;82.07;101305.88;5051124;28;20028;-26
2022/12/26 07:34:38;;;;;;;63.72;38.45;;;;;;;3.85;81.04;101309.41;5069255;28;20036;-25
2022/12/26 07:37:04;;;;;;;63.88;37.53;;;;;;;3.97;80.53;101306.44;5069224;28;20086;-26
2022/12/26 07:39:30;;;;;;;59.20;34.22;;;;;;;4.15;78.57;101289.84;5069018;28;20219;-27
2022/12/26 07:41:58;;;;;;;56.97;35.13;;;;;;;4.29;79.74;101306.97;5050872;28;20048;-27
2022/12/26 07:44:25;;;;;;;62.00;35.65;;;;;;;4.47;78.83;101305.19;5068532;28;20408;-26
2022/12/26 07:46:51;;;;;;;61.72;34.90;;;;;;;4.66;78.86;101317.47;5068991;28;20491;-26
2022/12/26 07:49:16;;;;;;;39.03;22.05;;;;;;;4.92;78.24;101316.72;5069351;28;20032;-27
2022/12/26 07:51:42;;;;;;;40.88;21.77;;;;;;;4.94;79.03;101302.38;5068847;28;20458;-27
2022/12/26 07:54:07;;;;;;;31.27;18.52;;;;;;;5.21;79.40;101303.25;5068649;28;20040;-27
2022/12/26 07:56:33;;;;;;;34.60;20.92;;;;;;;5.34;78.51;101293.13;5049944;28;20546;-27
2022/12/26 07:58:58;;;;;;;35.35;20.45;;;;;;;5.65;78.53;101311.19;5068349;28;20385;-27
2022/12/26 08:01:24;;;;;;;48.55;28.17;;;;;;;5.69;78.20;101290.53;5068486;28;20028;-26
2022/12/26 08:03:50;;;;;;;49.42;27.90;;;;;;;5.82;76.71;101304.16;5062466;28;20028;-30
2022/12/26 08:06:17;;;;;;;55.10;27.45;;;;;;;5.82;76.79;101317.41;5070554;28;20418;-25
2022/12/26 08:08:42;;;;;;;65.50;32.50;;;;;;;6.01;76.31;101301.31;5070652;28;20484;-29
2022/12/26 08:11:12;;;;;;;96.75;43.90;;;;;;;6.13;75.23;101303.69;5088754;28;20551;-26
2022/12/26 08:13:37;;;;;;;107.80;52.80;;;;;;;6.32;74.95;101314.03;5070279;28;20504;-29
2022/12/26 08:16:05;;;;;;;58.65;31.33;;;;;;;6.51;74.26;101312.09;5088880;28;20025;-28
2022/12/26 08:18:30;;;;;;;59.67;34.50;;;;;;;6.65;72.97;101330.03;5070396;28;20078;-28
2022/12/26 08:20:57;;;;;;;45.15;24.77;;;;;;;6.78;73.87;101335.72;5088592;28;20060;-29
2022/12/26 08:23:22;;;;;;;22.52;12.23;;;;;;;6.73;73.10;101314.13;5088566;28;20044;-26
2022/12/26 08:25:48;;;;;;;28.92;16.70;;;;;;;6.89;74.33;101336.38;5088950;28;20059;-25
2022/12/26 08:28:13;;;;;;;23.42;15.00;;;;;;;6.82;74.07;101329.09;5070284;28;20427;-26
2022/12/26 08:30:42;;;;;;;26.42;14.20;;;;;;;7.02;73.35;101326.13;5088867;28;20449;-27
2022/12/26 08:33:10;;;;;;;21.77;12.10;;;;;;;7.09;73.07;101311.22;5088760;28;20081;-29
2022/12/26 08:35:37;;;;;;;22.08;12.50;;;;;;;7.18;73.14;101304.91;5088908;28;20028;-27
2022/12/26 08:38:03;;;;;;;21.85;11.35;;;;;;;7.35;72.37;101315.50;5070198;28;20036;-28
2022/12/26 08:40:29;;;;;;;18.70;11.00;;;;;;;6.99;73.33;101310.53;5070233;28;20023;-28
2022/12/26 08:42:54;;;;;;;23.30;14.15;;;;;;;7.40;73.09;101318.50;5088418;28;20031;-28
2022/12/26 08:45:20;;;;;;;14.18;8.45;;;;;;;7.77;71.13;101319.78;5088408;28;20066;-28
2022/12/26 08:47:45;;;;;;;18.48;11.55;;;;;;;7.66;71.68;101302.34;5088613;28;20446;-26
2022/12/26 08:50:11;;;;;;;27.50;17.08;;;;;;;7.80;71.36;101303.47;5070047;28;20027;-28
2022/12/26 08:52:36;;;;;;;31.00;19.75;;;;;;;8.09;71.00;101296.75;5088469;28;20413;-26
2022/12/26 08:55:02;;;;;;;20.27;10.32;;;;;;;7.96;71.39;101306.09;5088520;28;20028;-26
2022/12/26 08:57:28;;;;;;;19.55;12.23;;;;;;;7.99;70.59;101296.97;5088464;28;20032;-28
2022/12/26 08:59:53;;;;;;;42.28;25.58;;;;;;;8.04;70.36;101299.91;5070399;28;20103;-28
2022/12/26 09:02:19;;;;;;;15.27;8.75;;;;;;;8.24;70.32;101305.66;5087832;28;20036;-27
2022/12/26 09:04:44;;;;;;;11.55;7.00;;;;;;;7.97;71.04;101305.09;5070246;28;20032;-27
2022/12/26 09:07:10;;;;;;;14.23;8.90;;;;;;;8.07;71.23;101299.59;5067453;28;20181;-28
2022/12/26 09:09:35;;;;;;;13.45;8.38;;;;;;;8.51;70.54;101298.25;5071359;28;20028;-29
2022/12/26 09:12:01;;;;;;;12.40;7.78;;;;;;;8.56;68.96;101271.94;5071308;28;20040;-27
2022/12/26 09:14:26;;;;;;;12.43;6.88;;;;;;;8.74;69.51;101288.44;5053673;28;20025;-28
2022/12/26 09:16:53;;;;;;;10.85;6.57;;;;;;;8.29;69.32;101279.38;5066778;28;20809;-25
2022/12/26 09:19:19;;;;;;;11.95;7.13;;;;;;;8.34;69.81;101265.59;5082364;28;20845;-27
2022/12/26 09:21:46;;;;;;;12.40;7.18;;;;;;;8.53;68.92;101240.41;5080422;28;20055;-27
2022/12/26 09:24:14;;;;;;;10.88;6.70;;;;;;;8.93;68.41;101263.22;5080385;28;20117;-28
2022/12/26 09:26:41;;;;;;;13.20;7.55;;;;;;;8.83;68.17;101255.47;5083178;28;20055;-28
2022/12/26 09:29:07;;;;;;;17.08;9.32;;;;;;;9.23;68.63;101257.97;5073328;28;20039;-30
2022/12/26 09:31:34;;;;;;;25.58;13.65;;;;;;;9.37;67.59;101249.19;5080153;28;20032;-28
2022/12/26 09:34:04;;;;;;;14.23;8.25;;;;;;;9.54;66.54;101252.50;5086662;28;20161;-36
2022/12/26 09:36:33;;;;;;;14.45;6.55;;;;;;;9.61;66.49;101242.78;5091311;28;20043;-29
2022/12/26 09:38:58;;;;;;;14.90;7.07;;;;;;;9.93;65.98;101253.22;5072946;28;20085;-26
2022/12/26 09:41:33;;;;;;;36.03;14.85;;;;;;;10.23;65.32;101252.16;5091342;28;20040;-29
2022/12/26 09:44:06;;;;;;;12.93;6.60;;;;;;;10.11;64.46;101235.00;5073146;28;20035;-28
2022/12/26 09:46:39;;;;;;;28.42;12.82;;;;;;;10.34;64.06;101232.22;5073038;28;20408;-26
2022/12/26 09:49:33;;;;;;;12.27;6.43;;;;;;;10.26;64.53;101232.31;5091083;28;20549;-26
2022/12/26 09:52:04;;;;;;;109.05;41.92;;;;;;;10.14;64.02;101215.16;5090689;28;20047;-28
2022/12/26 09:54:33;;;;;;;44.25;21.30;;;;;;;10.55;61.48;101220.75;5073035;28;20048;-29
2022/12/26 09:57:02;;;;;;;59.42;28.58;;;;;;;10.53;61.52;101216.63;5073009;28;20036;-27
2022/12/26 09:59:31;;;;;;;42.05;20.63;;;;;;;10.29;62.40;101228.44;5072668;28;20032;-26
2022/12/26 10:01:56;;;;;;;16.35;8.48;;;;;;;10.84;62.52;101224.28;5090712;28;20032;-31
2022/12/26 10:04:27;;;;;;;28.75;14.75;;;;;;;11.21;60.60;101223.13;5072572;28;20548;-29
2022/12/26 10:07:25;;;;;;;14.90;8.38;;;;;;;11.55;59.54;101220.69;5090811;28;20546;-27
2022/12/26 10:10:07;;;;;;;52.05;24.67;;;;;;;11.48;58.23;101203.78;5062449;28;20750;-27
2022/12/26 10:12:54;;;;;;;12.13;6.78;;;;;;;11.92;58.00;101222.16;5069499;28;20484;-29
2022/12/26 10:15:40;;;;;;;14.77;8.83;;;;;;;12.23;57.69;101228.84;5081578;28;20032;-27
2022/12/26 10:18:21;;;;;;;19.80;10.73;;;;;;;12.79;53.47;101211.63;5087791;28;20479;-30
2022/12/26 10:21:15;;;;;;;27.88;14.10;;;;;;;13.14;53.71;101209.59;5071311;28;20050;-27
2022/12/26 10:23:47;;;;;;;131.02;52.33;;;;;;;13.15;53.60;101203.19;5090738;28;20039;-31
2022/12/26 10:26:21;;;;;;;94.05;40.55;;;;;;;13.44;52.82;101203.78;5089519;28;20069;-27
2022/12/26 10:28:54;;;;;;;13.25;6.95;;;;;;;13.58;51.64;101194.66;5071967;28;20088;-29
2022/12/26 10:31:29;;;;;;;13.30;6.10;;;;;;;13.66;50.88;101199.78;5090214;28;20056;-27
2022/12/26 10:34:16;;;;;;;8.65;5.28;;;;;;;13.54;50.74;101193.44;5072030;28;20036;-27
2022/12/26 10:36:48;;;;;;;11.52;7.18;;;;;;;13.77;51.57;101192.13;5090108;28;20059;-28
2022/12/26 10:39:24;;;;;;;17.27;10.77;;;;;;;13.95;51.58;101186.06;5090248;28;20035;-27
2022/12/26 10:42:07;;;;;;;13.35;8.93;;;;;;;14.31;49.50;101184.66;5071602;28;20592;-28
2022/12/26 10:44:32;;;;;;;14.35;8.25;;;;;;;14.42;49.69;101183.94;5071883;28;20044;-27
2022/12/26 10:47:12;;;;;;;11.82;6.55;;;;;;;14.47;50.50;101154.59;5088637;28;20052;-28
2022/12/26 10:49:37;;;;;;;12.13;6.40;;;;;;;14.41;49.94;101150.13;5089680;28;20028;-32
2022/12/26 10:52:03;;;;;;;9.20;5.57;;;;;;;14.39;50.15;101174.47;5071332;28;20050;-29
2022/12/26 10:54:29;;;;;;;9.70;5.63;;;;;;;14.56;49.67;101157.88;5089944;28;20095;-29
2022/12/26 10:56:57;;;;;;;8.68;5.40;;;;;;;14.61;49.87;101150.00;5054919;28;20023;-28
2022/12/26 10:59:37;;;;;;;9.38;5.15;;;;;;;14.79;49.24;101158.09;5071614;28;20505;-27
2022/12/26 11:02:32;;;;;;;11.13;6.32;;;;;;;15.67;47.91;101156.97;5089504;28;20028;-27
2022/12/26 11:05:09;;;;;;;11.32;5.68;;;;;;;14.89;50.16;101137.97;5067724;28;20039;-30
2022/12/26 11:07:49;;;;;;;15.57;8.50;;;;;;;14.73;50.65;101147.41;5071426;28;20028;-29
2022/12/26 11:10:25;;;;;;;41.38;37.33;;;;;;;14.66;49.59;101139.41;5071019;28;20054;-28
2022/12/26 11:12:53;;;;;;;9.73;5.47;;;;;;;15.31;49.04;101138.16;5070431;28;20550;-27
2022/12/26 11:15:18;;;;;;;;;;;;;;;15.95;47.42;101154.78;5063089;28;20024;-33
2022/12/26 11:17:47;;;;;;;19.73;10.68;;;;;;;15.85;48.38;101155.31;5089569;28;19912;-27
2022/12/26 11:20:15;;;;;;;16.63;9.13;;;;;;;16.26;46.84;101159.09;5070506;28;20028;-29
2022/12/26 11:22:42;;;;;;;10.45;6.47;;;;;;;16.48;46.34;101145.91;5089284;28;20052;-28
2022/12/26 11:25:17;;;;;;;13.43;7.53;;;;;;;16.67;45.15;101143.94;5070987;28;20051;-30
2022/12/26 11:27:47;;;;;;;11.60;5.55;;;;;;;16.54;45.58;101139.59;5089745;28;20032;-34
2022/12/26 11:30:12;;;;;;;8.50;5.50;;;;;;;17.06;43.34;101138.94;5089118;28;20031;-29
2022/12/26 11:32:38;;;;;;;10.77;5.85;;;;;;;17.34;42.16;101140.88;5088399;28;20054;-28
2022/12/26 11:35:05;;;;;;;11.13;5.35;;;;;;;17.68;42.72;101125.69;5088873;28;20039;-30
2022/12/26 11:37:39;;;;;;;18.13;13.10;;;;;;;16.54;43.87;101123.44;5088789;28;20549;-28
2022/12/26 11:40:05;;;;;;;7.72;5.38;;;;;;;16.92;44.79;101122.22;5088758;28;20065;-28
2022/12/26 11:42:30;;;;;;;15.73;8.18;;;;;;;16.97;43.85;101113.41;5088725;28;20099;-29
2022/12/26 11:44:59;;;;;;;16.05;11.18;;;;;;;17.63;41.38;101125.59;5070768;28;20081;-29
2022/12/26 11:47:27;;;;;;;9.73;5.38;;;;;;;17.52;42.99;101115.66;5088602;28;20020;-28
2022/12/26 11:49:53;;;;;;;10.55;5.25;;;;;;;17.85;41.95;101124.94;5070533;28;20486;-28
2022/12/26 11:52:52;;;;;;;9.25;5.57;;;;;;;17.64;41.58;101121.81;5070153;28;20549;-27
2022/12/26 11:55:32;;;;;;;9.02;4.80;;;;;;;17.59;42.67;101121.75;5080057;28;20028;-29
2022/12/26 11:58:07;;;;;;;7.72;4.18;;;;;;;17.65;41.23;101120.78;5064320;28;20028;-29
2022/12/26 12:00:49;;;;;;;11.07;5.70;;;;;;;17.05;42.84;101111.16;5088365;28;20077;-31
2022/12/26 12:03:23;;;;;;;8.60;5.00;;;;;;;18.28;40.72;101123.53;5070637;28;20021;-29
2022/12/26 12:06:01;;;;;;;31.00;15.63;;;;;;;17.91;41.56;101123.16;5070440;28;20459;-27
2022/12/26 12:08:32;;;;;;;8.25;4.63;;;;;;;17.99;41.42;101111.97;5088959;28;20081;-28
2022/12/26 12:11:10;;;;;;;9.55;4.97;;;;;;;17.98;41.25;101113.88;5088444;28;20031;-30
2022/12/26 12:13:48;;;;;;;20.98;10.15;;;;;;;18.48;40.38;101104.97;5088988;28;20499;-33
2022/12/26 12:16:43;;;;;;;13.35;7.78;;;;;;;18.76;39.67;101103.25;5088563;28;20039;-33
2022/12/26 12:19:26;;;;;;;10.77;6.50;;;;;;;19.50;38.55;101107.47;5089172;28;20506;-30
2022/12/26 12:22:03;;;;;;;10.07;6.50;;;;;;;19.87;37.44;101106.81;5070382;28;20063;-29
2022/12/26 12:24:44;;;;;;;8.82;5.45;;;;;;;19.60;37.41;101101.38;5070364;28;20032;-28
2022/12/26 12:27:24;;;;;;;8.65;5.28;;;;;;;19.65;36.74;101099.50;5088656;28;20067;-31
2022/12/26 12:30:14;;;;;;;26.10;18.60;;;;;;;20.59;35.44;101096.59;5088583;28;20035;-32
2022/12/26 12:33:07;;;;;;;64.63;33.72;;;;;;;21.05;34.47;101105.03;5088549;28;20566;-32
2022/12/26 12:35:35;;;;;;;9.57;5.85;;;;;;;21.44;34.16;101110.09;5088359;28;20023;-32
2022/12/26 12:38:25;;;;;;;9.45;4.65;;;;;;;20.84;35.31;101109.50;5070361;28;20043;-28
2022/12/26 12:41:25;;;;;;;22.92;14.18;;;;;;;21.15;34.19;101093.41;5088601;28;20487;-29
2022/12/26 12:44:09;;;;;;;21.13;17.15;;;;;;;21.73;33.47;101112.34;5090486;28;20050;-29
2022/12/26 12:46:53;;;;;;;33.58;22.95;;;;;;;21.35;33.61;101108.94;5073821;28;20437;-31
2022/12/26 12:49:23;;;;;;;59.92;34.63;;;;;;;21.56;34.03;101105.25;5092335;28;20024;-30
2022/12/26 12:52:07;;;;;;;10.82;7.15;;;;;;;22.15;32.90;101104.00;5092230;28;20529;-31
2022/12/26 12:54:38;;;;;;;13.00;8.02;;;;;;;22.16;33.31;101108.34;5073701;28;20058;-29
2022/12/26 12:57:29;;;;;;;15.45;9.63;;;;;;;22.59;32.13;101116.25;5073690;28;20028;-30
2022/12/26 13:00:12;;;;;;;10.02;6.00;;;;;;;22.87;31.30;101123.00;5092190;28;20673;-29
2022/12/26 13:02:43;;;;;;;12.65;7.60;;;;;;;23.02;30.54;101120.25;5073607;28;20476;-28
2022/12/26 13:05:27;;;;;;;11.85;6.43;;;;;;;24.40;28.86;101126.84;5091943;28;20530;-28
2022/12/26 13:08:14;;;;;;;9.80;6.60;;;;;;;24.86;28.03;101129.16;5091886;28;20024;-27
2022/12/26 13:10:56;;;;;;;13.57;6.63;;;;;;;24.22;28.92;101122.91;5092287;28;20051;-27
2022/12/26 13:13:37;;;;;;;10.32;6.22;;;;;;;23.08;31.10;101121.06;5091876;28;20042;-27
2022/12/26 13:16:15;;;;;;;10.43;6.25;;;;;;;23.49;30.00;101111.91;5073329;28;20032;-28
2022/12/26 13:18:58;;;;;;;11.20;7.70;;;;;;;23.81;30.22;101116.94;5073605;28;20035;-27
2022/12/26 13:21:25;;;;;;;11.88;6.07;;;;;;;24.22;29.18;101108.47;5091534;28;20063;-29
2022/12/26 13:24:24;;;;;;;10.20;5.22;;;;;;;23.84;30.24;101113.63;5091414;28;20034;-28
2022/12/26 13:27:08;;;;;;;9.10;5.75;;;;;;;23.58;30.27;101111.06;5091650;28;20040;-27
2022/12/26 13:29:33;;;;;;;13.52;8.43;;;;;;;24.23;29.38;101104.63;5091823;28;20024;-30
2022/12/26 13:32:00;;;;;;;11.20;6.38;;;;;;;24.06;29.72;101080.53;5073371;28;20137;-30
2022/12/26 13:34:26;;;;;;;8.70;5.38;;;;;;;22.87;31.25;101084.91;5091113;28;20024;-28
2022/12/26 13:36:54;;;;;;;9.30;5.35;;;;;;;23.61;30.41;101096.88;5073252;28;20123;-27
2022/12/26 13:39:25;;;;;;;8.88;5.20;;;;;;;23.15;31.55;101094.38;5091403;28;20024;-28
2022/12/26 13:44:37;;;;;;;10.75;4.88;;;;;;;22.43;31.88;101059.19;5091406;28;20113;-29